Time;durP1;ratioP1;P1;durP2;ratioP2;P2;SDS_P1;SDS_P2;PMS_P1;PMS_P2;Temp;Humidity;BMP_temperature;BMP_pressure;BME280_temperature;BME280_humidity;BME280_pressure;Samples;Min_cycle;Max_cycle;Signal;HPM_P1;HPM_P2
2022/04/28 00:00:40;;;;;;;;;;;;;;;9.38;48.53;102439.00;5016622;28;20404;-53
2022/04/28 00:03:07;;;;;;;;;;;;;;;9.27;48.88;102439.28;5022836;28;19928;-56
2022/04/28 00:05:32;;;;;;;;;;;;;;;9.13;49.10;102443.13;5022336;28;19921;-50
2022/04/28 00:07:58;;;;;;;;;;;;;;;9.02;49.63;102434.63;5002663;28;20070;-53
2022/04/28 00:10:23;;;;;;;;;;;;;;;8.93;49.53;102445.34;5019790;28;19917;-58
2022/04/28 00:12:49;;;;;;;;;;;;;;;8.89;49.78;102443.69;5022145;28;20007;-58
2022/04/28 00:15:14;;;;;;;;;;;;;;;8.84;49.91;102446.44;5023732;28;19917;-56
2022/04/28 00:17:39;;;;;;;;;;;;;;;8.79;49.73;102443.91;5001585;28;19931;-58
2022/04/28 00:20:06;;;;;;;;;;;;;;;8.80;50.09;102445.66;5006506;28;19921;-57
2022/04/28 00:22:31;;;;;;;;;;;;;;;8.80;49.88;102444.78;5014747;28;20376;-53
2022/04/28 00:24:56;;;;;;;;;;;;;;;8.83;49.81;102448.22;5017163;28;19925;-52
2022/04/28 00:27:22;;;;;;;;;;;;;;;8.89;49.88;102444.56;5010868;28;20389;-50
2022/04/28 00:29:47;;;;;;;;;;;;;;;8.96;49.51;102445.28;5010904;28;19948;-55
2022/04/28 00:32:12;;;;;;;;;;;;;;;8.98;49.74;102444.34;5015464;28;19921;-56
2022/04/28 00:34:38;;;;;;;;;;;;;;;9.02;49.60;102441.66;5016738;28;19964;-57
2022/04/28 00:37:03;;;;;;;;;;;;;;;9.07;49.54;102443.25;5014159;28;20607;-56
2022/04/28 00:39:29;;;;;;;;;;;;;;;9.17;49.47;102440.41;5013008;28;19913;-51
2022/04/28 00:41:54;;;;;;;;;;;;;;;9.24;49.59;102439.38;5013334;28;19916;-54
2022/04/28 00:44:20;;;;;;;;;;;;;;;9.33;49.33;102438.28;5020653;28;20388;-58
2022/04/28 00:46:45;;;;;;;;;;;;;;;9.41;49.34;102431.03;5012746;28;19947;-58
2022/04/28 00:51:55;;;;;;;;;;;;;;;9.64;49.12;102440.97;4993729;28;20024;-58
2022/04/28 00:54:21;;;;;;;;;;;;;;;9.73;48.91;102446.00;5015013;28;19924;-56
2022/04/28 00:56:47;;;;;;;;;;;;;;;9.79;49.06;102444.06;5014118;28;20443;-56
2022/04/28 00:59:12;;;;;;;;;;;;;;;9.84;48.91;102442.19;5014638;28;19921;-52
2022/04/28 01:01:38;;;;;;;;;;;;;;;9.87;48.89;102444.75;5019883;28;19920;-52
2022/04/28 01:04:03;;;;;;;;;;;;;;;9.88;48.97;102447.31;5019892;28;19928;-54
2022/04/28 01:06:29;;;;;;;;;;;;;;;9.91;48.96;102438.47;5010396;28;19917;-53
2022/04/28 01:08:57;;;;;;;;;;;;;;;9.94;48.81;102438.41;5015749;28;19917;-58
2022/04/28 01:11:23;;;;;;;;;;;;;;;9.96;48.97;102435.75;5014439;28;19931;-58
2022/04/28 01:13:48;;;;;;;;;;;;;;;9.99;48.92;102439.13;5015276;28;19917;-57
2022/04/28 01:16:15;;;;;;;;;;;;;;;10.05;48.97;102441.59;5012083;28;20513;-58
2022/04/28 01:18:40;;;;;;;;;;;;;;;10.08;48.95;102440.66;5014690;28;19952;-57
2022/04/28 01:21:06;;;;;;;;;;;;;;;10.03;48.82;102447.78;5012485;28;20016;-55
2022/04/28 01:23:32;;;;;;;;;;;;;;;9.88;49.03;102452.56;5014114;28;19921;-53
2022/04/28 01:25:58;;;;;;;;;;;;;;;9.81;49.20;102452.78;5014583;28;19952;-56
2022/04/28 01:28:23;;;;;;;;;;;;;;;9.74;49.31;102447.72;5015126;28;20023;-57
2022/04/28 01:30:48;;;;;;;;;;;;;;;9.76;49.46;102448.50;5012787;28;19924;-55
2022/04/28 01:33:14;;;;;;;;;;;;;;;9.81;49.39;102451.03;4990892;28;19929;-54
2022/04/28 01:35:39;;;;;;;;;;;;;;;9.85;49.31;102454.44;5011616;28;19928;-54
2022/04/28 01:38:04;;;;;;;;;;;;;;;9.91;49.25;102457.75;5008758;28;19975;-55
2022/04/28 01:40:29;;;;;;;;;;;;;;;9.94;49.22;102451.53;5012491;28;19937;-52
2022/04/28 01:42:55;;;;;;;;;;;;;;;9.94;49.34;102445.44;5009349;28;19931;-53
2022/04/28 01:45:20;;;;;;;;;;;;;;;9.94;49.11;102454.16;5011296;28;20289;-53
2022/04/28 01:47:45;;;;;;;;;;;;;;;9.95;49.31;102453.28;4990580;28;19931;-58
2022/04/28 01:50:11;;;;;;;;;;;;;;;10.00;49.37;102451.38;5012521;28;19915;-56
2022/04/28 01:55:21;;;;;;;;;;;;;;;9.96;49.35;102449.75;5016856;28;20013;-52
2022/04/28 01:57:47;;;;;;;;;;;;;;;9.94;49.42;102462.06;5018948;28;20008;-55
2022/04/28 02:00:13;;;;;;;;;;;;;;;9.86;49.43;102464.91;5019579;28;20332;-55
2022/04/28 02:02:38;;;;;;;;;;;;;;;9.71;49.66;102471.44;5015516;28;19924;-57
2022/04/28 02:05:04;;;;;;;;;;;;;;;9.55;49.93;102463.09;4995637;28;19917;-55
2022/04/28 02:07:30;;;;;;;;;;;;;;;9.44;49.93;102466.00;5004764;28;21217;-58
2022/04/28 02:09:55;;;;;;;;;;;;;;;9.36;50.20;102465.31;4991979;28;20244;-53
2022/04/28 02:12:21;;;;;;;;;;;;;;;9.32;50.15;102458.41;5007071;28;19947;-52
2022/04/28 02:14:46;;;;;;;;;;;;;;;9.31;50.52;102461.94;5017789;28;19921;-53
2022/04/28 02:17:15;;;;;;;;;;;;;;;9.29;50.45;102466.41;5014311;28;19920;-52
2022/04/28 02:19:45;;;;;;;;;;;;;;;9.23;50.48;102459.50;5016877;28;19960;-56
2022/04/28 02:22:11;;;;;;;;;;;;;;;9.14;50.69;102465.00;5005345;28;20011;-56
2022/04/28 02:24:36;;;;;;;;;;;;;;;8.98;50.96;102460.09;5012182;28;19921;-59
2022/04/28 02:27:02;;;;;;;;;;;;;;;8.88;51.73;102462.97;5008677;28;19956;-59
2022/04/28 02:29:27;;;;;;;;;;;;;;;8.79;51.75;102459.66;4997874;28;19932;-54
2022/04/28 02:31:52;;;;;;;;;;;;;;;8.81;52.01;102465.75;5014877;28;20372;-54
2022/04/28 02:34:18;;;;;;;;;;;;;;;8.83;51.96;102456.09;5021895;28;19927;-54
2022/04/28 02:36:43;;;;;;;;;;;;;;;8.83;51.88;102450.84;5017736;28;20276;-51
2022/04/28 02:39:09;;;;;;;;;;;;;;;8.80;52.06;102461.41;5008895;28;20414;-52
2022/04/28 02:41:35;;;;;;;;;;;;;;;8.75;52.38;102452.75;5016306;28;19921;-52
2022/04/28 02:44:00;;;;;;;;;;;;;;;8.75;52.33;102446.66;5022647;28;20007;-50
2022/04/28 02:46:27;;;;;;;;;;;;;;;8.78;52.21;102452.69;5020729;28;19932;-59
2022/04/28 02:48:52;;;;;;;;;;;;;;;8.81;51.98;102452.63;5001863;28;19921;-52
2022/04/28 02:51:17;;;;;;;;;;;;;;;8.83;52.00;102456.09;5018056;28;19925;-57
2022/04/28 02:53:43;;;;;;;;;;;;;;;8.82;52.04;102458.72;5006449;28;19921;-51
2022/04/28 02:56:08;;;;;;;;;;;;;;;8.83;52.23;102456.09;5019267;28;19925;-53
2022/04/28 02:58:34;;;;;;;;;;;;;;;8.87;52.14;102450.75;5016255;28;20055;-54
2022/04/28 03:01:00;;;;;;;;;;;;;;;8.94;52.25;102458.44;5018588;28;20812;-54
2022/04/28 03:03:25;;;;;;;;;;;;;;;8.95;52.20;102448.81;5019692;28;20007;-52
2022/04/28 03:11:18;;;;;;;;;;;;;;;9.06;51.83;102452.03;5019581;28;19924;-53
2022/04/28 03:13:43;;;;;;;;;;;;;;;9.10;51.75;102458.06;5013496;28;19925;-57
2022/04/28 03:16:09;;;;;;;;;;;;;;;9.12;51.74;102457.16;5021938;28;20019;-52
2022/04/28 03:18:34;;;;;;;;;;;;;;;9.19;51.60;102462.25;4993900;28;19924;-51
2022/04/28 03:20:59;;;;;;;;;;;;;;;9.25;51.60;102462.09;4999337;28;19925;-55
2022/04/28 03:23:25;;;;;;;;;;;;;;;9.29;51.49;102467.25;5004123;28;19928;-57
2022/04/28 03:25:53;;;;;;;;;;;;;;;9.32;51.63;102474.19;5021616;28;19920;-56
2022/04/28 03:28:19;;;;;;;;;;;;;;;9.34;51.38;102474.16;5021418;28;19913;-54
2022/04/28 03:30:44;;;;;;;;;;;;;;;9.36;51.55;102470.56;5010522;28;19917;-58
2022/04/28 03:33:10;;;;;;;;;;;;;;;9.39;51.59;102478.38;5013274;28;19921;-52
2022/04/28 03:35:35;;;;;;;;;;;;;;;9.37;51.55;102477.56;5015147;28;19928;-55
2022/04/28 03:38:01;;;;;;;;;;;;;;;9.35;51.60;102483.75;5006720;28;20911;-52
2022/04/28 03:40:26;;;;;;;;;;;;;;;9.35;51.61;102468.84;5017393;28;19928;-55
2022/04/28 03:42:52;;;;;;;;;;;;;;;9.38;51.71;102478.41;5020745;28;19979;-54
2022/04/28 03:45:17;;;;;;;;;;;;;;;9.42;51.56;102473.06;5024830;28;19921;-54
2022/04/28 03:47:42;;;;;;;;;;;;;;;9.43;51.68;102477.41;5023619;28;19978;-51
2022/04/28 03:50:08;;;;;;;;;;;;;;;9.43;51.71;102477.41;5005431;28;20013;-57
2022/04/28 03:52:34;;;;;;;;;;;;;;;9.45;51.79;102480.84;5021728;28;20313;-51
2022/04/28 03:54:59;;;;;;;;;;;;;;;9.48;51.72;102487.81;5020107;28;19948;-55
2022/04/28 03:57:24;;;;;;;;;;;;;;;9.50;51.69;102486.00;5020387;28;19913;-57
2022/04/28 03:59:50;;;;;;;;;;;;;;;9.52;51.58;102491.22;5021080;28;19917;-57
2022/04/28 04:02:15;;;;;;;;;;;;;;;9.53;51.74;102492.94;5008003;28;19999;-53
2022/04/28 04:04:40;;;;;;;;;;;;;;;9.57;51.74;102491.97;5013238;28;20004;-54
2022/04/28 04:07:06;;;;;;;;;;;;;;;9.63;51.67;102486.53;5008961;28;20410;-53
2022/04/28 04:09:32;;;;;;;;;;;;;;;9.68;51.57;102495.19;5018192;28;19925;-55
2022/04/28 04:11:57;;;;;;;;;;;;;;;9.72;51.55;102496.84;4985717;28;20368;-57
2022/04/28 04:14:23;;;;;;;;;;;;;;;9.79;51.47;102499.28;5015110;28;20673;-53
2022/04/28 04:16:48;;;;;;;;;;;;;;;9.83;51.35;102485.16;5008045;28;19921;-56
2022/04/28 04:19:13;;;;;;;;;;;;;;;9.87;51.33;102492.06;5015668;28;19917;-54
2022/04/28 04:21:39;;;;;;;;;;;;;;;9.90;51.46;102494.63;5018695;28;19956;-50
2022/04/28 04:24:05;;;;;;;;;;;;;;;9.94;51.40;102491.00;5014587;28;19917;-51
2022/04/28 04:26:30;;;;;;;;;;;;;;;9.96;51.30;102502.34;5015268;28;19959;-52
2022/04/28 04:28:55;;;;;;;;;;;;;;;10.01;51.32;102499.56;5012929;28;19921;-50
2022/04/28 04:34:05;;;;;;;;;;;;;;;10.05;51.29;102507.38;5018368;28;19924;-53
2022/04/28 04:36:30;;;;;;;;;;;;;;;10.06;51.24;102506.44;5022325;28;19917;-56
2022/04/28 04:38:55;;;;;;;;;;;;;;;10.10;51.29;102511.63;5019081;28;20994;-53
2022/04/28 04:41:20;;;;;;;;;;;;;;;10.11;51.23;102514.22;5022516;28;19935;-50
2022/04/28 04:43:46;;;;;;;;;;;;;;;10.13;51.34;102511.53;5020144;28;20013;-51
2022/04/28 04:46:11;;;;;;;;;;;;;;;10.16;51.25;102514.94;5020141;28;19987;-51
2022/04/28 04:48:37;;;;;;;;;;;;;;;10.16;51.28;102514.94;5020157;28;19928;-55
2022/04/28 04:51:02;;;;;;;;;;;;;;;10.18;51.12;102522.81;5020233;28;20396;-56
2022/04/28 04:53:28;;;;;;;;;;;;;;;10.20;51.38;102528.88;5019343;28;19925;-58
2022/04/28 04:55:53;;;;;;;;;;;;;;;10.21;51.42;102520.06;5021292;28;19983;-56
2022/04/28 04:58:19;;;;;;;;;;;;;;;10.25;51.23;102524.34;5019701;28;20008;-55
2022/04/28 05:00:44;;;;;;;;;;;;;;;10.29;51.29;102517.22;5017790;28;19913;-58
2022/04/28 05:03:09;;;;;;;;;;;;;;;10.33;51.26;102525.00;5016988;28;19922;-54
2022/04/28 05:05:35;;;;;;;;;;;;;;;10.37;51.21;102525.78;5019678;28;19952;-56
2022/04/28 05:08:00;;;;;;;;;;;;;;;10.39;51.13;102525.75;5017689;28;19924;-54
2022/04/28 05:10:25;;;;;;;;;;;;;;;10.32;51.10;102531.16;5017184;28;20419;-55
2022/04/28 05:12:51;;;;;;;;;;;;;;;10.26;51.08;102531.34;5018666;28;19917;-55
2022/04/28 05:15:16;;;;;;;;;;;;;;;10.27;51.15;102532.22;5014514;28;19932;-53
2022/04/28 05:17:41;;;;;;;;;;;;;;;10.30;51.26;102538.25;5017659;28;19917;-56
2022/04/28 05:20:07;;;;;;;;;;;;;;;10.33;51.23;102542.53;5020304;28;19960;-53
2022/04/28 05:22:32;;;;;;;;;;;;;;;10.36;51.20;102538.06;5015278;28;20392;-54
2022/04/28 05:24:58;;;;;;;;;;;;;;;10.42;51.16;102544.09;5017754;28;19956;-55
2022/04/28 05:27:23;;;;;;;;;;;;;;;10.45;51.06;102546.66;5012318;28;19927;-58
2022/04/28 05:29:48;;;;;;;;;;;;;;;10.46;50.88;102538.69;5018483;28;20307;-55
2022/04/28 05:32:13;;;;;;;;;;;;;;;10.46;50.91;102545.75;5013562;28;20031;-57
2022/04/28 05:34:39;;;;;;;;;;;;;;;10.44;50.80;102551.03;5021456;28;19917;-53
2022/04/28 05:37:06;;;;;;;;;;;;;;;10.47;50.79;102543.06;4995778;28;19925;-56
2022/04/28 05:39:31;;;;;;;;;;;;;;;10.43;50.66;102548.44;5019632;28;19998;-51
2022/04/28 05:41:57;;;;;;;;;;;;;;;10.39;50.95;102552.06;5018294;28;19970;-54
2022/04/28 05:47:06;;;;;;;;;;;;;;;10.44;50.80;102544.91;5019269;28;19928;-50
2022/04/28 05:49:32;;;;;;;;;;;;;;;10.49;50.79;102554.41;5016856;28;19920;-54
2022/04/28 05:51:57;;;;;;;;;;;;;;;10.55;50.80;102558.63;5013294;28;19917;-54
2022/04/28 05:54:23;;;;;;;;;;;;;;;10.60;50.68;102546.22;5018548;28;19956;-50
2022/04/28 05:56:48;;;;;;;;;;;;;;;10.65;50.58;102557.47;5014705;28;19916;-53
2022/04/28 05:59:14;;;;;;;;;;;;;;;10.70;50.59;102559.97;5012338;28;19923;-54
2022/04/28 06:01:39;;;;;;;;;;;;;;;10.71;50.52;102552.91;5017770;28;19947;-56
2022/04/28 06:04:06;;;;;;;;;;;;;;;10.73;50.46;102556.38;5017966;28;19947;-57
2022/04/28 06:06:31;;;;;;;;;;;;;;;10.76;50.44;102561.56;5017455;28;19920;-51
2022/04/28 06:08:56;;;;;;;;;;;;;;;10.71;50.43;102560.81;5013809;28;19940;-51
2022/04/28 06:11:22;;;;;;;;;;;;;;;10.62;50.63;102568.09;5013762;28;20443;-52
2022/04/28 06:13:47;;;;;;;;;;;;;;;10.53;50.65;102565.69;5018860;28;19928;-51
2022/04/28 06:16:12;;;;;;;;;;;;;;;10.47;51.03;102566.75;5024056;28;19925;-53
2022/04/28 06:18:38;;;;;;;;;;;;;;;10.40;50.97;102569.59;5020467;28;20288;-52
2022/04/28 06:21:03;;;;;;;;;;;;;;;10.40;51.11;102569.59;5020686;28;20019;-50
2022/04/28 06:23:28;;;;;;;;;;;;;;;10.46;51.10;102569.44;5023089;28;19921;-55
2022/04/28 06:25:54;;;;;;;;;;;;;;;10.50;50.78;102571.91;5021443;28;20000;-52
2022/04/28 06:28:19;;;;;;;;;;;;;;;10.56;51.00;102575.31;5020202;28;19928;-51
2022/04/28 06:30:44;;;;;;;;;;;;;;;10.56;50.73;102570.88;5020162;28;19946;-52
2022/04/28 06:33:10;;;;;;;;;;;;;;;10.53;50.99;102576.22;5020662;28;20329;-52
2022/04/28 06:35:35;;;;;;;;;;;;;;;10.44;51.09;102568.59;5022577;28;19940;-52
2022/04/28 06:38:01;;;;;;;;;;;;;;;10.40;51.20;102570.47;5020694;28;19916;-51
2022/04/28 06:40:27;;;;;;;;;;;;;;;10.45;51.23;102573.81;5021573;28;20368;-54
2022/04/28 06:42:52;;;;;;;;;;;;;;;10.51;51.25;102571.03;5020676;28;19920;-57
2022/04/28 06:45:18;;;;;;;;;;;;;;;10.57;51.11;102575.25;5022578;28;19967;-53
2022/04/28 06:47:43;;;;;;;;;;;;;;;10.61;51.01;102574.25;5018568;28;19936;-56
2022/04/28 06:50:09;;;;;;;;;;;;;;;10.67;50.95;102578.47;5020427;28;19964;-58
2022/04/28 06:52:37;;;;;;;;;;;;;;;10.72;50.89;102583.59;5020128;28;19935;-55
2022/04/28 06:55:04;;;;;;;;;;;;;;;10.74;51.07;102579.16;5023099;28;19923;-56
2022/04/28 06:57:29;;;;;;;;;;;;;;;10.74;51.29;102577.38;5022797;28;20376;-54
2022/04/28 06:59:55;;;;;;;;;;;;;;;10.73;51.39;102585.34;5021080;28;20283;-53
2022/04/28 07:02:20;;;;;;;;;;;;;;;10.70;51.36;102585.41;5023898;28;20396;-55
2022/04/28 07:04:47;;;;;;;;;;;;;;;10.68;51.59;102585.47;5022221;28;20343;-55
2022/04/28 07:07:12;;;;;;;;;;;;;;;10.68;51.66;102591.59;5022221;28;19925;-58
2022/04/28 07:09:44;;;;;;;;;;;;;;;10.72;51.48;102583.59;5022444;28;19921;-57
2022/04/28 07:12:12;;;;;;;;;;;;;;;10.79;51.29;102586.03;5021628;28;19918;-56
2022/04/28 07:14:38;;;;;;;;;;;;;;;10.86;51.33;102584.06;5018487;28;19934;-55
2022/04/28 07:17:03;;;;;;;;;;;;;;;10.95;51.05;102578.53;5022899;28;19925;-53
2022/04/28 07:19:29;;;;;;;;;;;;;;;10.98;51.13;102585.47;5005192;28;20086;-51
2022/04/28 07:21:54;;;;;;;;;;;;;;;11.01;51.08;102587.16;5020304;28;20388;-53
2022/04/28 07:24:19;;;;;;;;;;;;;;;11.03;51.15;102582.69;5024819;28;19917;-54
2022/04/28 07:26:45;;;;;;;;;;;;;;;11.06;50.98;102590.53;5019589;28;19944;-56
2022/04/28 07:29:10;;;;;;;;;;;;;;;11.16;50.83;102591.09;5019927;28;19967;-54
2022/04/28 07:31:36;;;;;;;;;;;;;;;11.22;50.79;102588.25;5023395;28;19913;-55
2022/04/28 07:34:02;;;;;;;;;;;;;;;11.24;50.98;102595.25;5023880;28;19917;-54
2022/04/28 07:36:27;;;;;;;;;;;;;;;11.28;50.90;102602.13;5023379;28;20011;-54
2022/04/28 07:38:53;;;;;;;;;;;;;;;11.31;50.90;102595.91;5023248;28;19963;-53
2022/04/28 07:41:18;;;;;;;;;;;;;;;11.39;50.60;102600.94;5024377;28;20459;-55
2022/04/28 07:43:43;;;;;;;;;;;;;;;11.37;50.88;102595.69;5023706;28;19927;-52
2022/04/28 07:46:09;;;;;;;;;;;;;;;11.42;50.58;102596.41;5024304;28;19924;-54
2022/04/28 07:48:34;;;;;;;;;;;;;;;11.48;50.50;102591.88;5024505;28;19913;-57
2022/04/28 07:50:59;;;;;;;;;;;;;;;11.54;50.36;102596.94;5025997;28;19944;-50
2022/04/28 07:53:26;;;;;;;;;;;;;;;11.65;50.14;102599.22;5000205;28;19925;-53
2022/04/28 07:58:35;;;;;;;;;;;;;;;11.79;49.44;102602.28;5025129;28;19924;-50
2022/04/28 08:01:00;;;;;;;;;;;;;;;11.87;49.37;102600.22;5028170;28;19917;-53
2022/04/28 08:03:26;;;;;;;;;;;;;;;11.94;49.15;102600.03;5018951;28;19928;-53
2022/04/28 08:05:53;;;;;;;;;;;;;;;11.99;49.17;102598.16;5019121;28;19921;-56
2022/04/28 08:08:18;;;;;;;;;;;;;;;12.03;48.80;102607.66;5020329;28;19955;-52
2022/04/28 08:10:44;;;;;;;;;;;;;;;12.03;48.54;102595.34;5010217;28;19913;-54
2022/04/28 08:13:09;;;;;;;;;;;;;;;12.09;48.50;102603.97;5019958;28;20287;-53
2022/04/28 08:15:35;;;;;;;;;;;;;;;12.17;48.50;102597.53;5020304;28;19921;-58
2022/04/28 08:18:00;;;;;;;;;;;;;;;12.25;48.34;102604.28;5020582;28;19917;-54
2022/04/28 08:20:26;;;;;;;;;;;;;;;12.29;48.32;102605.91;5019744;28;19928;-58
2022/04/28 08:22:51;;;;;;;;;;;;;;;12.33;48.00;102602.22;5023176;28;19963;-56
2022/04/28 08:25:16;;;;;;;;;;;;;;;12.37;47.86;102598.56;5022180;28;19928;-53
2022/04/28 08:27:41;;;;;;;;;;;;;;;12.42;47.99;102601.03;5020686;28;19972;-55
2022/04/28 08:30:07;;;;;;;;;;;;;;;12.44;47.76;102607.13;5017414;28;20019;-51
2022/04/28 08:32:33;;;;;;;;;;;;;;;12.48;47.64;102606.97;5022055;28;20051;-53
2022/04/28 08:34:58;;;;;;;;;;;;;;;12.49;47.56;102603.41;5021654;28;20368;-53
2022/04/28 08:37:24;;;;;;;;;;;;;;;12.50;47.73;102597.22;5020544;28;19917;-54
2022/04/28 08:39:49;;;;;;;;;;;;;;;12.54;47.71;102595.34;5022677;28;19928;-54
2022/04/28 08:42:15;;;;;;;;;;;;;;;12.60;47.31;102602.19;5021132;28;20003;-51
2022/04/28 08:44:43;;;;;;;;;;;;;;;12.65;47.17;102602.84;5020294;28;19921;-56
2022/04/28 08:47:08;;;;;;;;;;;;;;;12.72;46.78;102606.13;5022441;28;19920;-53
2022/04/28 08:49:34;;;;;;;;;;;;;;;12.75;46.81;102608.66;5001324;28;20007;-55
2022/04/28 08:51:59;;;;;;;;;;;;;;;12.78;46.93;102608.53;5021785;28;19909;-56
2022/04/28 08:54:25;;;;;;;;;;;;;;;12.83;46.92;102600.44;5020361;28;19967;-55
2022/04/28 08:56:51;;;;;;;;;;;;;;;12.86;46.90;102590.63;5021384;28;19913;-54
2022/04/28 08:59:17;;;;;;;;;;;;;;;12.91;46.72;102595.75;5021283;28;20460;-55
2022/04/28 09:01:43;;;;;;;;;;;;;;;12.95;46.82;102605.25;5017567;28;19924;-53
2022/04/28 09:04:10;;;;;;;;;;;;;;;12.98;46.07;102602.50;5019083;28;19920;-52
2022/04/28 09:06:36;;;;;;;;;;;;;;;12.99;46.35;102606.88;5016910;28;19920;-54
2022/04/28 09:09:04;;;;;;;;;;;;;;;13.04;46.01;102604.06;5013084;28;19974;-52
2022/04/28 09:11:31;;;;;;;;;;;;;;;13.08;45.95;102598.56;5018810;28;19916;-56
2022/04/28 09:14:14;;;;;;;;;;;;;;;13.09;46.33;102610.88;5019272;28;20226;-55
2022/04/28 09:16:45;;;;;;;;;;;;;;;13.13;46.01;102598.44;5021206;28;19983;-56
2022/04/28 09:19:25;;;;;;;;;;;;;;;13.18;46.06;102611.47;5020040;28;20384;-58
2022/04/28 09:22:00;;;;;;;;;;;;;;;13.20;46.15;102604.34;5020641;28;19913;-57
2022/04/28 09:24:26;;;;;;;;;;;;;;;13.22;46.06;102607.78;5020822;28;19928;-55
2022/04/28 09:26:55;;;;;;;;;;;;;;;13.27;46.03;102608.44;5020292;28;20273;-55
2022/04/28 09:29:22;;;;;;;;;;;;;;;13.34;45.56;102607.28;5018086;28;19917;-55
2022/04/28 09:31:49;;;;;;;;;;;;;;;13.35;45.06;102606.38;5015321;28;20064;-58
2022/04/28 09:34:15;;;;;;;;;;;;;;;13.34;45.31;102607.28;5020256;28;20027;-57
2022/04/28 09:36:42;;;;;;;;;;;;;;;13.34;44.77;102602.00;5020945;28;19921;-55
2022/04/28 09:39:08;;;;;;;;;;;;;;;13.37;45.08;102598.38;5018528;28;19921;-52
2022/04/28 09:44:19;;;;;;;;;;;;;;;13.44;44.58;102605.19;5021870;28;21939;-54
2022/04/28 09:46:45;;;;;;;;;;;;;;;13.49;44.59;102615.56;5023227;28;20026;-54
2022/04/28 09:49:11;;;;;;;;;;;;;;;13.52;44.36;102607.50;5018894;28;20328;-58
2022/04/28 09:51:38;;;;;;;;;;;;;;;13.55;44.61;102602.94;5015687;28;19921;-58
2022/04/28 09:54:10;;;;;;;;;;;;;;;13.59;44.66;102598.38;5017158;28;19920;-59
2022/04/28 09:56:36;;;;;;;;;;;;;;;13.68;44.33;102600.69;5019392;28;19918;-56
2022/04/28 09:59:05;;;;;;;;;;;;;;;13.76;44.25;102602.13;5016565;28;19917;-59
2022/04/28 10:01:35;;;;;;;;;;;;;;;13.82;44.21;102596.59;5015841;28;19929;-50
2022/04/28 10:04:01;;;;;;;;;;;;;;;13.86;44.46;102598.16;5016158;28;20003;-56
2022/04/28 10:06:27;;;;;;;;;;;;;;;13.92;44.28;102589.97;5002375;28;20448;-56
2022/04/28 10:08:52;;;;;;;;;;;;;;;14.00;44.10;102597.59;5016605;28;19921;-56
2022/04/28 10:11:24;;;;;;;;;;;;;;;14.06;44.03;102597.34;5016893;28;20476;-58
2022/04/28 10:13:50;;;;;;;;;;;;;;;14.13;43.70;102590.00;5019530;28;19920;-56
2022/04/28 10:16:17;;;;;;;;;;;;;;;14.08;42.91;102586.69;5014972;28;19921;-56
2022/04/28 10:18:45;;;;;;;;;;;;;;;14.11;43.80;102597.13;5020112;28;20391;-58
2022/04/28 10:21:13;;;;;;;;;;;;;;;14.17;43.66;102602.16;5019914;28;19921;-58
2022/04/28 10:35:03;;;;;;;;;;;;;;;14.46;42.71;102598.22;5025253;28;19915;-57
2022/04/28 10:37:32;;;;;;;;;;;;;;;14.50;42.99;102601.59;5024275;28;20004;-58
2022/04/28 10:39:57;;;;;;;;;;;;;;;14.51;42.55;102603.31;5022835;28;19913;-56
2022/04/28 10:42:29;;;;;;;;;;;;;;;14.52;42.64;102599.75;5023539;28;19943;-58
2022/04/28 10:44:55;;;;;;;;;;;;;;;14.55;42.24;102598.72;5024336;28;19917;-58
2022/04/28 10:47:41;;;;;;;;;;;;;;;14.53;42.07;102609.41;5023101;28;19921;-50
2022/04/28 10:50:22;;;;;;;;;;;;;;;14.55;41.83;102602.25;5023601;28;19920;-55
2022/04/28 10:53:00;;;;;;;;;;;;;;;14.58;41.91;102615.38;5023412;28;19924;-53
2022/04/28 10:55:41;;;;;;;;;;;;;;;14.57;41.64;102618.06;5022538;28;19918;-52
2022/04/28 10:58:17;;;;;;;;;;;;;;;14.57;41.11;102608.34;5022972;28;19924;-58
2022/04/28 11:00:50;;;;;;;;;;;;;;;14.58;41.32;102607.44;5022550;28;20036;-58
2022/04/28 11:03:15;;;;;;;;;;;;;;;14.61;41.33;102607.25;5004093;28;19921;-58
2022/04/28 11:05:40;;;;;;;;;;;;;;;14.69;41.46;102611.41;5021921;28;19929;-57
2022/04/28 11:08:09;;;;;;;;;;;;;;;14.77;41.34;102617.19;5023001;28;19917;-54
2022/04/28 11:10:54;;;;;;;;;;;;;;;14.81;41.18;102618.78;5018104;28;19936;-56
2022/04/28 11:13:21;;;;;;;;;;;;;;;14.80;41.45;102610.91;5021925;28;19913;-58
2022/04/28 11:15:46;;;;;;;;;;;;;;;14.80;40.97;102610.91;5023986;28;19928;-56
2022/04/28 11:18:12;;;;;;;;;;;;;;;14.75;41.15;102608.44;5022780;28;19920;-54
2022/04/28 11:20:38;;;;;;;;;;;;;;;14.76;40.76;102604.88;5023971;28;19921;-55
2022/04/28 11:23:03;;;;;;;;;;;;;;;14.77;41.07;102606.59;5021086;28;19917;-58
2022/04/28 11:25:28;;;;;;;;;;;;;;;14.78;40.90;102609.19;5024230;28;19949;-55
2022/04/28 11:27:56;;;;;;;;;;;;;;;14.81;41.02;102608.19;5021852;28;20281;-55
2022/04/28 11:30:24;;;;;;;;;;;;;;;14.87;41.12;102618.50;5023074;28;21137;-54
2022/04/28 11:32:57;;;;;;;;;;;;;;;14.90;40.99;102617.50;5023145;28;20265;-55
2022/04/28 11:35:23;;;;;;;;;;;;;;;14.89;40.85;102606.06;5022064;28;19917;-51
2022/04/28 11:37:53;;;;;;;;;;;;;;;14.92;40.87;102613.00;5021228;28;20399;-54
2022/04/28 11:40:19;;;;;;;;;;;;;;;14.97;40.88;102618.06;5023225;28;20008;-56
2022/04/28 11:42:48;;;;;;;;;;;;;;;15.00;40.87;102610.00;5022377;28;20000;-55
2022/04/28 11:45:14;;;;;;;;;;;;;;;15.02;40.78;102600.19;5024167;28;19932;-58
2022/04/28 11:47:45;;;;;;;;;;;;;;;15.07;40.71;102598.16;5022479;28;19976;-57
2022/04/28 11:50:21;;;;;;;;;;;;;;;15.13;40.89;102608.47;5005866;28;20381;-58
2022/04/28 11:52:56;;;;;;;;;;;;;;;15.24;40.62;102597.38;5021459;28;19914;-55
2022/04/28 11:55:24;;;;;;;;;;;;;;;15.33;39.96;102588.09;5022461;28;19916;-54
2022/04/28 11:57:49;;;;;;;;;;;;;;;15.37;40.32;102589.66;5020675;28;19991;-57
2022/04/28 12:00:15;;;;;;;;;;;;;;;15.42;40.30;102590.28;5020936;28;20297;-54
2022/04/28 12:02:44;;;;;;;;;;;;;;;15.47;40.12;102590.94;5020121;28;19921;-55
2022/04/28 12:05:18;;;;;;;;;;;;;;;15.52;40.29;102594.22;5021658;28;19917;-55
2022/04/28 12:07:51;;;;;;;;;;;;;;;15.53;40.32;102590.63;5021603;28;20407;-54
2022/04/28 12:15:52;;;;;;;;;;;;;;;15.76;40.41;102601.91;5023062;28;19978;-55
2022/04/28 12:21:13;;;;;;;;;;;;;;;15.88;38.70;102581.00;5022217;28;19962;-50
2022/04/28 12:23:40;;;;;;;;;;;;;;;15.87;38.69;102588.13;5016902;28;19921;-53
2022/04/28 12:26:06;;;;;;;;;;;;;;;15.81;38.32;102578.63;5024111;28;19917;-51
2022/04/28 12:28:36;;;;;;;;;;;;;;;15.81;38.94;102567.16;5024975;28;19955;-55
2022/04/28 12:31:04;;;;;;;;;;;;;;;15.93;39.23;102571.88;5026858;28;19917;-54
2022/04/28 12:33:31;;;;;;;;;;;;;;;16.07;39.18;102573.81;5022725;28;19966;-53
2022/04/28 12:35:59;;;;;;;;;;;;;;;16.19;38.78;102580.25;5017888;28;20908;-54
2022/04/28 12:38:28;;;;;;;;;;;;;;;16.25;38.46;102571.16;5018197;28;20411;-51
2022/04/28 12:40:54;;;;;;;;;;;;;;;16.26;38.51;102579.03;5012825;28;20011;-58
2022/04/28 12:43:37;;;;;;;;;;;;;;;16.27;38.51;102574.56;5017118;28;20051;-57
2022/04/28 12:46:03;;;;;;;;;;;;;;;16.30;38.73;102590.34;5016224;28;19912;-58
2022/04/28 12:48:28;;;;;;;;;;;;;;;16.29;38.53;102577.97;5019116;28;19935;-54
2022/04/28 12:51:10;;;;;;;;;;;;;;;16.27;38.74;102575.44;5020510;28;19912;-52
2022/04/28 12:53:36;;;;;;;;;;;;;;;16.27;38.84;102579.84;5020051;28;20015;-53
2022/04/28 12:56:03;;;;;;;;;;;;;;;16.27;38.92;102571.91;5022768;28;19996;-55
2022/04/28 12:58:28;;;;;;;;;;;;;;;16.27;39.06;102579.84;5000391;28;20252;-54
2022/04/28 13:00:53;;;;;;;;;;;;;;;16.26;38.92;102583.50;5021754;28;19917;-55
2022/04/28 13:03:28;;;;;;;;;;;;;;;16.23;38.94;102573.03;5021414;28;19921;-55
2022/04/28 13:05:54;;;;;;;;;;;;;;;16.25;38.63;102576.44;5023695;28;19959;-55
2022/04/28 13:08:19;;;;;;;;;;;;;;;16.28;38.53;102592.19;5022920;28;19921;-52
2022/04/28 13:10:45;;;;;;;;;;;;;;;16.29;38.13;102575.31;5023949;28;19959;-57
2022/04/28 13:13:10;;;;;;;;;;;;;;;16.23;38.03;102571.22;5021209;28;20399;-58
2022/04/28 13:15:36;;;;;;;;;;;;;;;16.20;38.07;102567.84;5020046;28;19921;-54
2022/04/28 13:18:01;;;;;;;;;;;;;;;16.21;38.16;102554.50;5020105;28;20019;-57